Tiksy — UFVH — position and weather

sailwx.info

Track history (hours):
 
Tides and Currents Weather Stations Pressure Air Temp Water Temp Dewpoint Dewpoint Depression Visibility Wind Speed Wind Dir Waves Ship Positions

Tiksy

Last reported at 2018-Jul-22 07:59 UTC. Time now 2018-Jul-22 08:20 UTC.
Position N 57°40' E 010°36'.

Length 130 m; draft 8.8 m.

Type: Cargo ship. MMSI: 273396870.

Date/timePositionNaut miles runAvg speedWind from/ knotsBaromVisibWave heightAir tempDewpointWater temp
2018-Jul-22 07:59N 57°40' E 010°36'0 0.0
2018-Jul-22 07:29N 57°40' E 010°36'0 0.0
2018-Jul-22 06:59N 57°40' E 010°36'0 0.1
2018-Jul-22 06:29N 57°40' E 010°36'1 1.0
2018-Jul-22 05:52N 57°40' E 010°35'1 3.4
2018-Jul-22 05:30N 57°40' E 010°37'3 5.2
2018-Jul-22 05:00N 57°42' E 010°41'3 6.9
2018-Jul-22 04:30N 57°44' E 010°46'4 8.0
2018-Jul-22 04:00N 57°47' E 010°40'510.2
2018-Jul-22 03:30N 57°47' E 010°30'610.2
2018-Jul-22 02:54N 57°45' E 010°19'410.1
2018-Jul-22 02:30N 57°43' E 010°12'711.0
2018-Jul-22 01:53N 57°40' E 010°01'1912.1
2018-Jul-22 00:20N 57°30' E 009°31'611.7
2018-Jul-21 23:49N 57°27' E 009°21'611.6
2018-Jul-21 23:18N 57°24' E 009°12'411.7
2018-Jul-21 22:59N 57°22' E 009°06'611.7
2018-Jul-21 22:29N 57°20' E 008°56'611.6
2018-Jul-21 21:58N 57°17' E 008°47'911.6
2018-Jul-21 21:09N 57°12' E 008°31'511.4
2018-Jul-21 20:43N 57°09' E 008°24'211.6
2018-Jul-21 20:30N 57°07' E 008°22'611.3
2018-Jul-21 20:00N 57°02' E 008°16'611.2
2018-Jul-21 19:30N 56°57' E 008°11'611.4
2018-Jul-21 19:00N 56°52' E 008°05'611.3
2018-Jul-21 18:30N 56°48' E 008°00'611.4
2018-Jul-21 17:58N 56°43' E 007°54'511.4
2018-Jul-21 17:30N 56°38' E 007°48'611.4
2018-Jul-21 17:00N 56°34' E 007°42'611.3
2018-Jul-21 16:27N 56°29' E 007°36'511.5
2018-Jul-21 16:00N 56°24' E 007°30'611.2
2018-Jul-21 15:30N 56°20' E 007°25'611.4
2018-Jul-21 15:00N 56°15' E 007°19'611.5
2018-Jul-21 14:30N 56°10' E 007°13'10911.5
2018-Jul-21 05:01N 54°42' E 005°21'110.5
2018-Jul-21 04:58N 54°41' E 005°20'810.5
2018-Jul-21 04:15N 54°35' E 005°13'310.6
2018-Jul-21 04:00N 54°33' E 005°10'510.6
2018-Jul-21 03:30N 54°29' E 005°05'510.7
2018-Jul-21 03:00N 54°24' E 004°60'510.8
2018-Jul-21 02:30N 54°20' E 004°54'510.8
2018-Jul-21 02:00N 54°16' E 004°49'510.7
2018-Jul-21 01:29N 54°11' E 004°45'1110.7
2018-Jul-21 00:26N 54°00' E 004°38'510.6
2018-Jul-20 23:57N 53°55' E 004°36'510.7
2018-Jul-20 23:30N 53°52' E 004°31'510.6
2018-Jul-20 23:00N 53°48' E 004°25'510.7
2018-Jul-20 22:30N 53°44' E 004°18'510.7
2018-Jul-20 22:00N 53°41' E 004°10'510.6
2018-Jul-20 21:30N 53°38' E 004°03'510.5
2018-Jul-20 21:00N 53°35' E 003°56'510.4
2018-Jul-20 20:30N 53°32' E 003°49'510.4
2018-Jul-20 20:00N 53°27' E 003°44'510.6
2018-Jul-20 19:30N 53°23' E 003°40'510.4
2018-Jul-20 19:00N 53°18' E 003°36'510.4
2018-Jul-20 18:30N 53°13' E 003°33'510.2
2018-Jul-20 18:00N 53°09' E 003°30'510.1
2018-Jul-20 17:30N 53°04' E 003°26'510.0
2018-Jul-20 17:00N 52°59' E 003°24'10 9.7
2018-Jul-20 16:00N 52°50' E 003°20'5 9.6
2018-Jul-20 15:30N 52°45' E 003°18'5 9.5
2018-Jul-20 15:00N 52°40' E 003°17'5 9.3
2018-Jul-20 14:30N 52°36' E 003°15'5 9.2
2018-Jul-20 14:00N 52°31' E 003°14'5 9.3
2018-Jul-20 13:30N 52°27' E 003°13'5 9.4
2018-Jul-20 13:00N 52°22' E 003°12'5 9.7
2018-Jul-20 12:30N 52°17' E 003°11'510.0
2018-Jul-20 12:00N 52°12' E 003°09'5 9.9
2018-Jul-20 11:30N 52°08' E 003°07'510.6
2018-Jul-20 11:01N 52°04' E 003°01'510.8
2018-Jul-20 10:30N 51°59' E 002°55'511.0
2018-Jul-20 10:00N 51°55' E 002°50'611.3
2018-Jul-20 09:30N 51°51' E 002°44'611.4
2018-Jul-20 09:00N 51°46' E 002°38'611.6
2018-Jul-20 08:30N 51°42' E 002°32'611.7
2018-Jul-20 08:00N 51°37' E 002°26'611.9
2018-Jul-20 07:30N 51°33' E 002°20'612.1
2018-Jul-20 07:00N 51°28' E 002°14'611.9
2018-Jul-20 06:30N 51°23' E 002°08'611.8
2018-Jul-20 06:00N 51°18' E 002°07'612.2
2018-Jul-20 05:30N 51°13' E 002°01'713.5
2018-Jul-20 05:00N 51°09' E 001°52'713.6
2018-Jul-20 04:30N 51°05' E 001°43'713.6
2018-Jul-20 04:00N 51°00' E 001°35'713.2
2018-Jul-20 03:30N 50°55' E 001°29'612.7
2018-Jul-20 03:01N 50°49' E 001°25'612.1
2018-Jul-20 02:31N 50°44' E 001°21'510.9
2018-Jul-20 02:01N 50°39' E 001°17'611.8
2018-Jul-20 01:30N 50°35' E 001°10'611.9
2018-Jul-20 01:01N 50°31' E 001°03'611.5
2018-Jul-20 00:30N 50°29' E 000°54'611.3
2018-Jul-20 00:00N 50°27' E 000°46'511.0
2018-Jul-19 23:31N 50°25' E 000°38'510.6
2018-Jul-19 23:00N 50°24' E 000°30'510.1
2018-Jul-19 22:30N 50°22' E 000°22'5 9.8
2018-Jul-19 22:00N 50°21' E 000°15'5 9.6
2018-Jul-19 21:30N 50°20' E 000°08'5 9.4
2018-Jul-19 21:00N 50°18' E 000°00'5 9.0
2018-Jul-19 20:26N 50°17' W 000°07'4 9.0
2018-Jul-19 20:00N 50°16' W 000°13'4 8.8
2018-Jul-19 19:30N 50°15' W 000°20'4 8.7
2018-Jul-19 19:00N 50°14' W 000°26'4 8.7
2018-Jul-19 18:30N 50°13' W 000°33'4 8.9
2018-Jul-19 18:00N 50°12' W 000°40'4 9.1
2018-Jul-19 17:30N 50°11' W 000°47'5 9.4
2018-Jul-19 17:00N 50°09' W 000°54'510.1
2018-Jul-19 16:30N 50°08' W 001°01'510.8
2018-Jul-19 16:00N 50°06' W 001°09'611.5
2018-Jul-19 15:30N 50°05' W 001°18'612.2
2018-Jul-19 15:00N 50°03' W 001°27'612.9
2018-Jul-19 14:30N 50°01' W 001°37'1413.6
2018-Jul-19 13:30N 49°58' W 001°57'714.1
2018-Jul-19 13:00N 49°56' W 002°08'714.0
2018-Jul-19 12:30N 49°54' W 002°18'713.6
2018-Jul-19 12:00N 49°52' W 002°28'612.8
2018-Jul-19 11:30N 49°51' W 002°38'612.7
2018-Jul-19 11:00N 49°49' W 002°47'612.3
2018-Jul-19 10:30N 49°46' W 002°56'711.9
2018-Jul-19 09:57N 49°43' W 003°05'511.5
2018-Jul-19 09:30N 49°41' W 003°12'611.4
2018-Jul-19 09:00N 49°38' W 003°19'1011.3
2018-Jul-19 08:09N 49°33' W 003°32'211.1
2018-Jul-19 07:59N 49°32' W 003°35'611.0
2018-Jul-19 07:26N 49°29' W 003°43'610.8
2018-Jul-19 06:51N 49°26' W 003°51'1310.4
2018-Jul-19 05:38N 49°20' W 004°08'25 9.7
2018-Jul-19 03:01N 49°07' W 004°42'2 9.5
2018-Jul-19 02:48N 49°06' W 004°45'3 9.4
2018-Jul-19 02:29N 49°04' W 004°49'5 9.4
2018-Jul-19 02:00N 49°02' W 004°55'5 9.0
2018-Jul-19 01:26N 48°60' W 005°01'4 9.3
2018-Jul-19 01:00N 48°58' W 005°06'5 9.5
2018-Jul-19 00:30N 48°55' W 005°13'5 9.9
2018-Jul-18 23:58N 48°53' W 005°20'510.1
2018-Jul-18 23:30N 48°50' W 005°26'510.5
2018-Jul-18 23:00N 48°48' W 005°33'  
2018-Jul-16 07:39N 39°21' W 009°51'211.4
2018-Jul-16 07:29N 39°19' W 009°51'611.6
2018-Jul-16 07:00N 39°13' W 009°51'611.4
2018-Jul-16 06:30N 39°07' W 009°51'511.0
2018-Jul-16 06:00N 39°02' W 009°51'611.4
2018-Jul-16 05:30N 38°56' W 009°51'611.5
2018-Jul-16 05:00N 38°51' W 009°52'611.5
2018-Jul-16 04:30N 38°45' W 009°51'611.5
2018-Jul-16 04:00N 38°39' W 009°50'611.6
2018-Jul-16 03:30N 38°34' W 009°49'611.5
2018-Jul-16 03:00N 38°28' W 009°47'611.5
2018-Jul-16 02:28N 38°22' W 009°45'511.3
2018-Jul-16 02:00N 38°17' W 009°44'611.1
2018-Jul-16 01:27N 38°11' W 009°42'511.1
2018-Jul-16 01:00N 38°06' W 009°41'611.1
2018-Jul-16 00:30N 38°01' W 009°39'510.9
2018-Jul-16 00:00N 37°55' W 009°38'611.0
2018-Jul-15 23:30N 37°50' W 009°36'510.9
2018-Jul-15 23:00N 37°44' W 009°35'510.7
2018-Jul-15 22:30N 37°39' W 009°33'6610.2
2018-Jul-15 16:02N 36°41' W 008°54'011.1
2018-Jul-15 16:00N 36°41' W 008°54'611.1
2018-Jul-15 15:30N 36°39' W 008°47'910.7
2018-Jul-15 14:42N 36°37' W 008°37'14111.0
2018-Jul-15 01:57N 35°58' W 005°49'612.5
2018-Jul-15 01:29N 35°58' W 005°42'511.1
2018-Jul-15 01:00N 35°58' W 005°36'510.1
2018-Jul-15 00:30N 35°59' W 005°30'5 9.1
2018-Jul-15 00:00N 36°00' W 005°24'4 7.9
2018-Jul-14 23:30N 36°01' W 005°19'4 7.2
2018-Jul-14 23:00N 36°02' W 005°15'3 6.6
2018-Jul-14 22:30N 36°02' W 005°11'40210.5
2018-Jul-13 08:18N 37°00' E 003°04'412.1
2018-Jul-13 07:57N 37°01' E 003°09'512.0
2018-Jul-13 07:30N 37°01' E 003°16'612.0
2018-Jul-13 07:00N 37°02' E 003°23'612.0
2018-Jul-13 06:30N 37°03' E 003°31'612.0
2018-Jul-13 06:00N 37°04' E 003°39'612.1
2018-Jul-13 05:30N 37°05' E 003°46'612.0
2018-Jul-13 05:00N 37°05' E 003°53'611.8
2018-Jul-13 04:30N 37°06' E 004°01'611.5
2018-Jul-13 04:00N 37°07' E 004°08'611.5
2018-Jul-13 03:30N 37°08' E 004°15'611.4
2018-Jul-13 03:00N 37°08' E 004°22'611.6
2018-Jul-13 02:29N 37°09' E 004°30'611.6
2018-Jul-13 02:00N 37°10' E 004°36'611.6
2018-Jul-13 01:30N 37°11' E 004°44'611.6
2018-Jul-13 00:58N 37°12' E 004°51'511.3
2018-Jul-13 00:30N 37°13' E 004°58'1411.6
2018-Jul-12 23:20N 37°15' E 005°15'512.0
2018-Jul-12 22:56N 37°15' E 005°21'512.2
2018-Jul-12 22:29N 37°16' E 005°28'612.3
2018-Jul-12 22:00N 37°17' E 005°35'612.2
2018-Jul-12 21:30N 37°17' E 005°43'612.3
2018-Jul-12 21:00N 37°17' E 005°51'811.8
2018-Jul-12 20:18N 37°18' E 006°01'311.6
2018-Jul-12 20:00N 37°18' E 006°05'611.4
2018-Jul-12 19:27N 37°18' E 006°13'511.4
2018-Jul-12 18:59N 37°17' E 006°20'611.4
2018-Jul-12 18:26N 37°17' E 006°28'2011.4
2018-Jul-12 16:42N 37°14' E 006°52'  
Track history (hours):
 
Tides and Currents Weather Stations Pressure Air Temp Water Temp Dewpoint Dewpoint Depression Visibility Wind Speed Wind Dir Waves Ship Positions

Tiksy

Last reported at 2018-Jul-22 07:59 UTC. Time now 2018-Jul-22 08:20 UTC.
Position N 57°40' E 010°36'.

Length 130 m; draft 8.8 m.

Type: Cargo ship. MMSI: 273396870.

Date/timePositionNaut miles runAvg speedWind from/ knotsBaromVisibWave heightAir tempDewpointWater temp
2018-Jul-22 07:59N 57°40' E 010°36'0 0.0
2018-Jul-22 07:29N 57°40' E 010°36'0 0.0
2018-Jul-22 06:59N 57°40' E 010°36'0 0.1
2018-Jul-22 06:29N 57°40' E 010°36'1 1.0
2018-Jul-22 05:52N 57°40' E 010°35'1 3.4
2018-Jul-22 05:30N 57°40' E 010°37'3 5.2
2018-Jul-22 05:00N 57°42' E 010°41'3 6.9
2018-Jul-22 04:30N 57°44' E 010°46'4 8.0
2018-Jul-22 04:00N 57°47' E 010°40'510.2
2018-Jul-22 03:30N 57°47' E 010°30'610.2
2018-Jul-22 02:54N 57°45' E 010°19'410.1
2018-Jul-22 02:30N 57°43' E 010°12'711.0
2018-Jul-22 01:53N 57°40' E 010°01'1912.1
2018-Jul-22 00:20N 57°30' E 009°31'611.7
2018-Jul-21 23:49N 57°27' E 009°21'611.6
2018-Jul-21 23:18N 57°24' E 009°12'411.7
2018-Jul-21 22:59N 57°22' E 009°06'611.7
2018-Jul-21 22:29N 57°20' E 008°56'611.6
2018-Jul-21 21:58N 57°17' E 008°47'911.6
2018-Jul-21 21:09N 57°12' E 008°31'511.4
2018-Jul-21 20:43N 57°09' E 008°24'211.6
2018-Jul-21 20:30N 57°07' E 008°22'611.3
2018-Jul-21 20:00N 57°02' E 008°16'611.2
2018-Jul-21 19:30N 56°57' E 008°11'611.4
2018-Jul-21 19:00N 56°52' E 008°05'611.3
2018-Jul-21 18:30N 56°48' E 008°00'611.4
2018-Jul-21 17:58N 56°43' E 007°54'511.4
2018-Jul-21 17:30N 56°38' E 007°48'611.4
2018-Jul-21 17:00N 56°34' E 007°42'611.3
2018-Jul-21 16:27N 56°29' E 007°36'511.5
2018-Jul-21 16:00N 56°24' E 007°30'611.2
2018-Jul-21 15:30N 56°20' E 007°25'611.4
2018-Jul-21 15:00N 56°15' E 007°19'611.5
2018-Jul-21 14:30N 56°10' E 007°13'10911.5
2018-Jul-21 05:01N 54°42' E 005°21'110.5
2018-Jul-21 04:58N 54°41' E 005°20'810.5
2018-Jul-21 04:15N 54°35' E 005°13'310.6
2018-Jul-21 04:00N 54°33' E 005°10'510.6
2018-Jul-21 03:30N 54°29' E 005°05'510.7
2018-Jul-21 03:00N 54°24' E 004°60'510.8
2018-Jul-21 02:30N 54°20' E 004°54'510.8
2018-Jul-21 02:00N 54°16' E 004°49'510.7
2018-Jul-21 01:29N 54°11' E 004°45'1110.7
2018-Jul-21 00:26N 54°00' E 004°38'510.6
2018-Jul-20 23:57N 53°55' E 004°36'510.7
2018-Jul-20 23:30N 53°52' E 004°31'510.6
2018-Jul-20 23:00N 53°48' E 004°25'510.7
2018-Jul-20 22:30N 53°44' E 004°18'510.7
2018-Jul-20 22:00N 53°41' E 004°10'510.6
2018-Jul-20 21:30N 53°38' E 004°03'510.5
2018-Jul-20 21:00N 53°35' E 003°56'510.4
2018-Jul-20 20:30N 53°32' E 003°49'510.4
2018-Jul-20 20:00N 53°27' E 003°44'510.6
2018-Jul-20 19:30N 53°23' E 003°40'510.4
2018-Jul-20 19:00N 53°18' E 003°36'510.4
2018-Jul-20 18:30N 53°13' E 003°33'510.2
2018-Jul-20 18:00N 53°09' E 003°30'510.1
2018-Jul-20 17:30N 53°04' E 003°26'510.0
2018-Jul-20 17:00N 52°59' E 003°24'10 9.7
2018-Jul-20 16:00N 52°50' E 003°20'5 9.6
2018-Jul-20 15:30N 52°45' E 003°18'5 9.5
2018-Jul-20 15:00N 52°40' E 003°17'5 9.3
2018-Jul-20 14:30N 52°36' E 003°15'5 9.2
2018-Jul-20 14:00N 52°31' E 003°14'5 9.3
2018-Jul-20 13:30N 52°27' E 003°13'5 9.4
2018-Jul-20 13:00N 52°22' E 003°12'5 9.7
2018-Jul-20 12:30N 52°17' E 003°11'510.0
2018-Jul-20 12:00N 52°12' E 003°09'5 9.9
2018-Jul-20 11:30N 52°08' E 003°07'510.6
2018-Jul-20 11:01N 52°04' E 003°01'510.8
2018-Jul-20 10:30N 51°59' E 002°55'511.0
2018-Jul-20 10:00N 51°55' E 002°50'611.3
2018-Jul-20 09:30N 51°51' E 002°44'611.4
2018-Jul-20 09:00N 51°46' E 002°38'611.6
2018-Jul-20 08:30N 51°42' E 002°32'611.7
2018-Jul-20 08:00N 51°37' E 002°26'611.9
2018-Jul-20 07:30N 51°33' E 002°20'612.1
2018-Jul-20 07:00N 51°28' E 002°14'611.9
2018-Jul-20 06:30N 51°23' E 002°08'611.8
2018-Jul-20 06:00N 51°18' E 002°07'612.2
2018-Jul-20 05:30N 51°13' E 002°01'713.5
2018-Jul-20 05:00N 51°09' E 001°52'713.6
2018-Jul-20 04:30N 51°05' E 001°43'713.6
2018-Jul-20 04:00N 51°00' E 001°35'713.2
2018-Jul-20 03:30N 50°55' E 001°29'612.7
2018-Jul-20 03:01N 50°49' E 001°25'612.1
2018-Jul-20 02:31N 50°44' E 001°21'510.9
2018-Jul-20 02:01N 50°39' E 001°17'611.8
2018-Jul-20 01:30N 50°35' E 001°10'611.9
2018-Jul-20 01:01N 50°31' E 001°03'611.5
2018-Jul-20 00:30N 50°29' E 000°54'611.3
2018-Jul-20 00:00N 50°27' E 000°46'511.0
2018-Jul-19 23:31N 50°25' E 000°38'510.6
2018-Jul-19 23:00N 50°24' E 000°30'510.1
2018-Jul-19 22:30N 50°22' E 000°22'5 9.8
2018-Jul-19 22:00N 50°21' E 000°15'5 9.6
2018-Jul-19 21:30N 50°20' E 000°08'5 9.4
2018-Jul-19 21:00N 50°18' E 000°00'5 9.0
2018-Jul-19 20:26N 50°17' W 000°07'4 9.0
2018-Jul-19 20:00N 50°16' W 000°13'4 8.8
2018-Jul-19 19:30N 50°15' W 000°20'4 8.7
2018-Jul-19 19:00N 50°14' W 000°26'4 8.7
2018-Jul-19 18:30N 50°13' W 000°33'4 8.9
2018-Jul-19 18:00N 50°12' W 000°40'4 9.1
2018-Jul-19 17:30N 50°11' W 000°47'5 9.4
2018-Jul-19 17:00N 50°09' W 000°54'510.1
2018-Jul-19 16:30N 50°08' W 001°01'510.8
2018-Jul-19 16:00N 50°06' W 001°09'611.5
2018-Jul-19 15:30N 50°05' W 001°18'612.2
2018-Jul-19 15:00N 50°03' W 001°27'612.9
2018-Jul-19 14:30N 50°01' W 001°37'1413.6
2018-Jul-19 13:30N 49°58' W 001°57'714.1
2018-Jul-19 13:00N 49°56' W 002°08'714.0
2018-Jul-19 12:30N 49°54' W 002°18'713.6
2018-Jul-19 12:00N 49°52' W 002°28'612.8
2018-Jul-19 11:30N 49°51' W 002°38'612.7
2018-Jul-19 11:00N 49°49' W 002°47'612.3
2018-Jul-19 10:30N 49°46' W 002°56'711.9
2018-Jul-19 09:57N 49°43' W 003°05'511.5
2018-Jul-19 09:30N 49°41' W 003°12'611.4
2018-Jul-19 09:00N 49°38' W 003°19'1011.3
2018-Jul-19 08:09N 49°33' W 003°32'211.1
2018-Jul-19 07:59N 49°32' W 003°35'611.0
2018-Jul-19 07:26N 49°29' W 003°43'610.8
2018-Jul-19 06:51N 49°26' W 003°51'1310.4
2018-Jul-19 05:38N 49°20' W 004°08'25 9.7
2018-Jul-19 03:01N 49°07' W 004°42'2 9.5
2018-Jul-19 02:48N 49°06' W 004°45'3 9.4
2018-Jul-19 02:29N 49°04' W 004°49'5 9.4
2018-Jul-19 02:00N 49°02' W 004°55'5 9.0
2018-Jul-19 01:26N 48°60' W 005°01'4 9.3
2018-Jul-19 01:00N 48°58' W 005°06'5 9.5
2018-Jul-19 00:30N 48°55' W 005°13'5 9.9
2018-Jul-18 23:58N 48°53' W 005°20'510.1
2018-Jul-18 23:30N 48°50' W 005°26'510.5
2018-Jul-18 23:00N 48°48' W 005°33'  
2018-Jul-16 07:39N 39°21' W 009°51'211.4
2018-Jul-16 07:29N 39°19' W 009°51'611.6
2018-Jul-16 07:00N 39°13' W 009°51'611.4
2018-Jul-16 06:30N 39°07' W 009°51'511.0
2018-Jul-16 06:00N 39°02' W 009°51'611.4
2018-Jul-16 05:30N 38°56' W 009°51'611.5
2018-Jul-16 05:00N 38°51' W 009°52'611.5
2018-Jul-16 04:30N 38°45' W 009°51'611.5
2018-Jul-16 04:00N 38°39' W 009°50'611.6
2018-Jul-16 03:30N 38°34' W 009°49'611.5
2018-Jul-16 03:00N 38°28' W 009°47'611.5
2018-Jul-16 02:28N 38°22' W 009°45'511.3
2018-Jul-16 02:00N 38°17' W 009°44'611.1
2018-Jul-16 01:27N 38°11' W 009°42'511.1
2018-Jul-16 01:00N 38°06' W 009°41'611.1
2018-Jul-16 00:30N 38°01' W 009°39'510.9
2018-Jul-16 00:00N 37°55' W 009°38'611.0
2018-Jul-15 23:30N 37°50' W 009°36'510.9
2018-Jul-15 23:00N 37°44' W 009°35'510.7
2018-Jul-15 22:30N 37°39' W 009°33'6610.2
2018-Jul-15 16:02N 36°41' W 008°54'011.1
2018-Jul-15 16:00N 36°41' W 008°54'611.1
2018-Jul-15 15:30N 36°39' W 008°47'910.7
2018-Jul-15 14:42N 36°37' W 008°37'14111.0
2018-Jul-15 01:57N 35°58' W 005°49'612.5
2018-Jul-15 01:29N 35°58' W 005°42'511.1
2018-Jul-15 01:00N 35°58' W 005°36'510.1
2018-Jul-15 00:30N 35°59' W 005°30'5 9.1
2018-Jul-15 00:00N 36°00' W 005°24'4 7.9
2018-Jul-14 23:30N 36°01' W 005°19'4 7.2
2018-Jul-14 23:00N 36°02' W 005°15'3 6.6
2018-Jul-14 22:30N 36°02' W 005°11'40210.5
2018-Jul-13 08:18N 37°00' E 003°04'412.1
2018-Jul-13 07:57N 37°01' E 003°09'512.0
2018-Jul-13 07:30N 37°01' E 003°16'612.0
2018-Jul-13 07:00N 37°02' E 003°23'612.0
2018-Jul-13 06:30N 37°03' E 003°31'612.0
2018-Jul-13 06:00N 37°04' E 003°39'612.1
2018-Jul-13 05:30N 37°05' E 003°46'612.0
2018-Jul-13 05:00N 37°05' E 003°53'611.8
2018-Jul-13 04:30N 37°06' E 004°01'611.5
2018-Jul-13 04:00N 37°07' E 004°08'611.5
2018-Jul-13 03:30N 37°08' E 004°15'611.4
2018-Jul-13 03:00N 37°08' E 004°22'611.6
2018-Jul-13 02:29N 37°09' E 004°30'611.6
2018-Jul-13 02:00N 37°10' E 004°36'611.6
2018-Jul-13 01:30N 37°11' E 004°44'611.6
2018-Jul-13 00:58N 37°12' E 004°51'511.3
2018-Jul-13 00:30N 37°13' E 004°58'1411.6
2018-Jul-12 23:20N 37°15' E 005°15'512.0
2018-Jul-12 22:56N 37°15' E 005°21'512.2
2018-Jul-12 22:29N 37°16' E 005°28'612.3
2018-Jul-12 22:00N 37°17' E 005°35'612.2
2018-Jul-12 21:30N 37°17' E 005°43'612.3
2018-Jul-12 21:00N 37°17' E 005°51'811.8
2018-Jul-12 20:18N 37°18' E 006°01'311.6
2018-Jul-12 20:00N 37°18' E 006°05'611.4
2018-Jul-12 19:27N 37°18' E 006°13'511.4
2018-Jul-12 18:59N 37°17' E 006°20'611.4
2018-Jul-12 18:26N 37°17' E 006°28'2011.4
2018-Jul-12 16:42N 37°14' E 006°52'  

Dump ship's entire track history